createdAt,value
2023-01-17T00:02:08.904Z,6.93
2023-01-17T00:04:54.652Z,6.79
2023-01-17T00:07:41.803Z,6.74
2023-01-17T00:10:10.445Z,6.63
2023-01-17T00:12:37.716Z,6.63
2023-01-17T00:15:06.083Z,6.47
2023-01-17T00:17:33.139Z,6.44
2023-01-17T00:20:20.147Z,6.44
2023-01-17T00:23:07.002Z,6.34
2023-01-17T00:25:59.011Z,6.29
2023-01-17T00:28:27.482Z,6.13
2023-01-17T00:30:54.417Z,6.07
2023-01-17T00:33:22.640Z,6.02
2023-01-17T00:35:50.074Z,5.88
2023-01-17T00:38:22.301Z,5.88
2023-01-17T00:40:50.189Z,5.77
2023-01-17T00:43:41.285Z,5.71
2023-01-17T00:46:27.195Z,5.73
2023-01-17T00:49:12.776Z,5.65
2023-01-17T00:51:58.143Z,5.55
2023-01-17T00:54:43.554Z,5.51
2023-01-17T00:57:29.092Z,5.46
2023-01-17T01:00:14.728Z,5.33
2023-01-17T01:03:00.374Z,5.27
2023-01-17T01:05:45.930Z,5.26
2023-01-17T01:08:35.736Z,5.22
2023-01-17T01:11:23.769Z,5.21
2023-01-17T01:14:09.531Z,5.21
2023-01-17T01:16:55.366Z,5.21
2023-01-17T01:19:41.026Z,5.22
2023-01-17T01:22:26.482Z,5.24
2023-01-17T01:25:11.703Z,5.29
2023-01-17T01:27:59.012Z,5.24
2023-01-17T01:30:44.893Z,5.28
2023-01-17T01:33:20.670Z,5.33
2023-01-17T01:35:49.392Z,5.33
2023-01-17T01:38:18.155Z,5.32
2023-01-17T01:40:50.446Z,5.28
2023-01-17T01:43:20.784Z,5.18
2023-01-17T01:45:57.341Z,5.12
2023-01-17T01:48:27.337Z,5.21
2023-01-17T01:50:54.608Z,5.12
2023-01-17T01:53:21.968Z,5.20
2023-01-17T01:55:51.205Z,5.13
2023-01-17T01:58:32.189Z,5.11
2023-01-17T02:00:59.321Z,5.09
2023-01-17T02:03:30.165Z,5.15
2023-01-17T02:06:03.716Z,5.12
2023-01-17T02:08:31.454Z,5.14
2023-01-17T02:10:58.704Z,5.13
2023-01-17T02:13:25.653Z,5.15
2023-01-17T02:16:03.311Z,5.17
2023-01-17T02:18:33.122Z,5.20
2023-01-17T02:21:23.329Z,5.24
2023-01-17T02:23:53.060Z,5.22
2023-01-17T02:26:44.813Z,5.17
2023-01-17T02:29:45.745Z,5.08
2023-01-17T02:32:31.362Z,5.12
2023-01-17T02:35:28.337Z,5.08
2023-01-17T02:38:24.537Z,5.13
2023-01-17T02:41:07.119Z,5.10
2023-01-17T02:43:36.353Z,5.05
2023-01-17T02:46:03.849Z,5.00
2023-01-17T02:48:34.344Z,4.98
2023-01-17T02:51:21.679Z,4.93
2023-01-17T02:54:07.265Z,4.99
2023-01-17T02:56:48.918Z,4.71
2023-01-17T02:59:46.678Z,4.90
2023-01-17T03:02:28.586Z,4.91
2023-01-17T03:05:13.876Z,4.90
2023-01-17T03:07:44.488Z,4.95
2023-01-17T03:10:14.954Z,4.91
2023-01-17T03:12:43.221Z,4.94
2023-01-17T03:15:13.079Z,4.94
2023-01-17T03:17:44.400Z,4.94
2023-01-17T03:20:11.214Z,4.89
2023-01-17T03:22:38.055Z,4.82
2023-01-17T03:25:06.178Z,4.67
2023-01-17T03:27:33.418Z,4.68
2023-01-17T03:30:00.304Z,4.59
2023-01-17T03:32:27.343Z,4.59
2023-01-17T03:34:54.269Z,4.59
2023-01-17T03:37:21.099Z,4.59
2023-01-17T03:39:48.036Z,4.66
2023-01-17T03:42:14.980Z,4.71
2023-01-17T03:44:41.785Z,4.65
2023-01-17T03:47:12.155Z,4.72
2023-01-17T03:49:39.880Z,4.77
2023-01-17T03:52:07.625Z,4.77
2023-01-17T03:54:34.536Z,4.81
2023-01-17T03:57:01.713Z,4.80
2023-01-17T03:59:28.615Z,4.89
2023-01-17T04:01:55.483Z,4.90
2023-01-17T04:04:22.727Z,4.99
2023-01-17T04:06:49.613Z,5.20
2023-01-17T04:09:16.493Z,5.24
2023-01-17T04:11:43.312Z,5.28
2023-01-17T04:14:10.172Z,5.14
2023-01-17T04:16:43.566Z,5.23
2023-01-17T04:19:13.300Z,5.29
2023-01-17T04:21:40.248Z,5.32
2023-01-17T04:24:07.435Z,5.35
2023-01-17T04:26:34.535Z,5.41
2023-01-17T04:29:01.450Z,5.55
2023-01-17T04:31:28.352Z,5.62
2023-01-17T04:33:55.346Z,5.79
2023-01-17T04:36:28.075Z,6.07
2023-01-17T04:38:54.984Z,6.23
2023-01-17T04:41:21.865Z,6.64
2023-01-17T04:43:48.698Z,6.85
2023-01-17T04:46:15.899Z,7.05
2023-01-17T04:48:42.778Z,7.29
2023-01-17T04:51:09.857Z,7.41
2023-01-17T04:53:36.821Z,7.54
2023-01-17T04:56:03.786Z,7.63
2023-01-17T04:58:31.498Z,7.75
2023-01-17T05:01:06.299Z,7.75
2023-01-17T05:03:34.386Z,7.82
2023-01-17T05:06:01.792Z,7.77
2023-01-17T05:08:28.811Z,7.76
2023-01-17T05:10:57.185Z,7.79
2023-01-17T05:13:24.118Z,7.78
2023-01-17T05:15:51.026Z,7.77
2023-01-17T05:18:18.820Z,7.84
2023-01-17T05:20:45.857Z,7.81
2023-01-17T05:23:12.996Z,7.82
2023-01-17T05:25:44.546Z,7.84
2023-01-17T05:28:13.014Z,7.86
2023-01-17T05:30:40.575Z,7.90
2023-01-17T05:33:09.458Z,7.81
2023-01-17T05:35:48.951Z,7.83
2023-01-17T05:38:15.830Z,7.76
2023-01-17T05:40:42.775Z,7.59
2023-01-17T05:43:10.069Z,7.71
2023-01-17T05:45:37.138Z,7.72
2023-01-17T05:48:04.831Z,7.71
2023-01-17T05:50:35.903Z,7.74
2023-01-17T05:53:11.475Z,7.80
2023-01-17T05:55:39.336Z,7.76
2023-01-17T05:58:07.713Z,7.82
2023-01-17T06:00:34.900Z,7.82
2023-01-17T06:03:01.793Z,7.85
2023-01-17T06:05:30.159Z,7.87
2023-01-17T06:07:57.581Z,7.86
2023-01-17T06:10:25.537Z,7.82
2023-01-17T06:13:01.989Z,7.69
2023-01-17T06:15:29.829Z,7.74
2023-01-17T06:17:57.012Z,7.83
2023-01-17T06:20:23.871Z,7.84
2023-01-17T06:22:50.883Z,7.89
2023-01-17T06:25:17.745Z,7.89
2023-01-17T06:27:44.728Z,7.83
2023-01-17T06:30:12.248Z,7.87
2023-01-17T06:32:39.198Z,7.87
2023-01-17T06:35:06.496Z,7.87
2023-01-17T06:37:33.474Z,7.84
2023-01-17T06:40:00.443Z,7.95
2023-01-17T06:42:27.352Z,7.91
2023-01-17T06:44:54.231Z,7.95
2023-01-17T06:47:21.257Z,7.84
2023-01-17T06:49:48.083Z,7.88
2023-01-17T06:52:15.139Z,7.84
2023-01-17T06:54:42.342Z,7.78
2023-01-17T06:57:09.216Z,7.77
2023-01-17T06:59:36.206Z,7.70
2023-01-17T07:02:03.224Z,7.72
2023-01-17T07:04:30.264Z,7.70
2023-01-17T07:06:57.369Z,7.70
2023-01-17T07:09:24.443Z,7.79
2023-01-17T07:11:52.551Z,7.76
2023-01-17T07:14:19.368Z,7.84
2023-01-17T07:16:49.227Z,7.82
2023-01-17T07:19:16.148Z,7.95
2023-01-17T07:21:43.066Z,8.01
2023-01-17T07:24:10.406Z,8.10
2023-01-17T07:26:40.763Z,8.08
2023-01-17T07:29:07.719Z,8.21
2023-01-17T07:31:36.864Z,8.37
2023-01-17T07:34:04.246Z,8.56
2023-01-17T07:36:31.265Z,9.15
2023-01-17T07:38:58.169Z,9.32
2023-01-17T07:41:25.278Z,9.52
2023-01-17T07:43:52.202Z,9.68
2023-01-17T07:46:19.576Z,9.88
2023-01-17T07:48:46.412Z,10.03
2023-01-17T07:51:13.383Z,10.16
2023-01-17T07:53:41.632Z,10.24
2023-01-17T07:56:08.760Z,10.27
2023-01-17T07:58:36.346Z,10.37
2023-01-17T08:01:09.547Z,10.57
2023-01-17T08:03:40.097Z,10.58
2023-01-17T08:06:21.093Z,10.69
2023-01-17T08:08:48.298Z,10.88
2023-01-17T08:11:15.989Z,11.13
2023-01-17T08:13:42.946Z,11.37
2023-01-17T08:16:11.016Z,11.59
2023-01-17T08:18:38.039Z,11.93
2023-01-17T08:21:05.355Z,12.12
2023-01-17T08:23:32.269Z,12.31
2023-01-17T08:26:02.414Z,12.56
2023-01-17T08:28:29.429Z,12.63
2023-01-17T08:30:56.339Z,12.72
2023-01-17T08:33:23.240Z,12.63
2023-01-17T08:35:54.362Z,12.68
2023-01-17T08:38:23.972Z,12.74
2023-01-17T08:40:51.213Z,12.80
2023-01-17T08:43:18.256Z,12.90
2023-01-17T08:45:46.068Z,12.91
2023-01-17T08:48:13.138Z,12.89
2023-01-17T08:50:40.024Z,12.97
2023-01-17T08:53:07.043Z,12.99
2023-01-17T08:55:38.912Z,13.09
2023-01-17T08:58:05.745Z,13.07
2023-01-17T09:00:32.775Z,13.19
2023-01-17T09:02:59.713Z,13.17
2023-01-17T09:05:27.050Z,13.27
2023-01-17T09:07:55.704Z,13.35
2023-01-17T09:10:23.742Z,13.48
2023-01-17T09:12:50.791Z,13.52
2023-01-17T09:15:20.345Z,13.63
2023-01-17T09:17:47.918Z,13.69
2023-01-17T09:20:15.191Z,13.67
2023-01-17T09:22:42.149Z,13.77
2023-01-17T09:25:09.249Z,13.85
2023-01-17T09:27:36.426Z,13.84
2023-01-17T09:30:04.823Z,13.92
2023-01-17T09:32:31.846Z,13.92
2023-01-17T09:35:01.113Z,14.03
2023-01-17T09:37:28.135Z,14.03
2023-01-17T09:39:55.139Z,14.06
2023-01-17T09:42:33.590Z,13.86
2023-01-17T09:45:00.701Z,14.00
2023-01-17T09:47:43.637Z,14.09
2023-01-17T09:50:37.637Z,14.25
2023-01-17T09:53:12.645Z,14.20
2023-01-17T09:55:53.921Z,14.28
2023-01-17T09:58:27.837Z,14.33
2023-01-17T10:00:55.000Z,14.52
2023-01-17T10:03:47.000Z,14.53
2023-01-17T10:06:29.536Z,14.43
2023-01-17T10:09:03.862Z,14.60
2023-01-17T10:11:58.820Z,14.59
2023-01-17T10:15:03.242Z,14.59
2023-01-17T10:17:41.093Z,14.67
2023-01-17T10:20:49.639Z,14.68
2023-01-17T10:23:36.083Z,14.74
2023-01-17T10:26:15.126Z,14.80
2023-01-17T10:28:48.802Z,14.89
2023-01-17T10:31:27.319Z,14.78
2023-01-17T10:33:56.916Z,14.76
2023-01-17T10:36:38.950Z,14.78
2023-01-17T10:39:35.308Z,14.87
2023-01-17T10:42:22.098Z,14.82
2023-01-17T10:45:30.624Z,14.68
2023-01-17T10:48:09.858Z,14.62
2023-01-17T10:50:50.471Z,14.61
2023-01-17T10:53:41.758Z,14.69
2023-01-17T10:56:13.842Z,14.68
2023-01-17T10:58:40.822Z,14.53
2023-01-17T11:01:17.078Z,14.60
2023-01-17T11:03:48.929Z,14.65
2023-01-17T11:06:25.697Z,14.63
2023-01-17T11:08:55.048Z,14.56
2023-01-17T11:11:25.964Z,14.65
2023-01-17T11:13:55.686Z,14.55
2023-01-17T11:16:28.770Z,14.57
2023-01-17T11:19:23.746Z,14.71
2023-01-17T11:21:53.743Z,14.85
2023-01-17T11:25:03.973Z,14.87
2023-01-17T11:27:36.249Z,14.91
2023-01-17T11:30:15.993Z,14.96
2023-01-17T11:32:57.991Z,15.05
2023-01-17T11:35:44.230Z,15.08
2023-01-17T11:38:21.636Z,15.14
2023-01-17T11:40:49.834Z,15.09
2023-01-17T11:43:22.694Z,15.16
2023-01-17T11:46:13.765Z,15.21
2023-01-17T11:48:40.837Z,15.12
2023-01-17T11:51:25.015Z,15.12
2023-01-17T11:53:55.892Z,15.17
2023-01-17T11:56:37.162Z,15.24
2023-01-17T11:59:43.700Z,15.25
2023-01-17T12:02:35.806Z,15.32
2023-01-17T12:05:58.374Z,15.25
2023-01-17T12:08:44.208Z,15.22
2023-01-17T12:11:35.989Z,15.18
2023-01-17T12:14:21.432Z,15.03
2023-01-17T12:17:20.588Z,14.95
2023-01-17T12:19:54.361Z,14.94
2023-01-17T12:22:34.182Z,15.03
2023-01-17T12:25:22.937Z,15.01
2023-01-17T12:28:16.719Z,14.80
2023-01-17T12:31:14.552Z,14.91
2023-01-17T12:34:16.875Z,14.98
2023-01-17T12:37:04.398Z,14.96
2023-01-17T12:39:37.481Z,14.95
2023-01-17T12:42:24.179Z,15.02
2023-01-17T12:45:06.920Z,14.94
2023-01-17T12:47:41.837Z,14.90
2023-01-17T12:50:37.316Z,15.12
2023-01-17T12:53:41.696Z,15.16
2023-01-17T12:56:24.458Z,14.71
2023-01-17T12:59:33.073Z,15.09
2023-01-17T13:02:04.307Z,15.15
2023-01-17T13:04:58.121Z,15.12
2023-01-17T13:07:44.965Z,15.06
2023-01-17T13:10:33.659Z,15.06
2023-01-17T13:13:11.907Z,15.20
2023-01-17T13:15:40.674Z,15.08
2023-01-17T13:18:17.412Z,15.06
2023-01-17T13:21:06.242Z,15.13
2023-01-17T13:23:38.814Z,15.09
2023-01-17T13:26:20.914Z,15.08
2023-01-17T13:29:08.341Z,15.11
2023-01-17T13:31:49.644Z,15.03
2023-01-17T13:34:41.451Z,14.92
2023-01-17T13:37:32.651Z,14.88
2023-01-17T13:40:28.574Z,14.74
2023-01-17T13:43:00.282Z,14.74
2023-01-17T13:45:36.127Z,14.64
2023-01-17T13:48:12.274Z,14.60
2023-01-17T13:50:41.977Z,14.60
2023-01-17T13:53:37.155Z,14.46
2023-01-17T13:56:19.244Z,14.46
2023-01-17T13:58:50.263Z,14.40
2023-01-17T14:01:23.535Z,14.22
2023-01-17T14:03:50.502Z,14.15
2023-01-17T14:06:36.332Z,14.14
2023-01-17T14:09:26.775Z,14.02
2023-01-17T14:12:02.537Z,13.93
2023-01-17T14:14:44.575Z,13.84
2023-01-17T14:17:25.661Z,13.77
2023-01-17T14:19:57.771Z,13.71
2023-01-17T14:22:27.386Z,13.69
2023-01-17T14:25:10.053Z,13.65
2023-01-17T14:27:43.073Z,13.58
2023-01-17T14:30:32.830Z,13.48
2023-01-17T14:33:01.177Z,13.43
2023-01-17T14:35:32.849Z,13.33
2023-01-17T14:38:05.639Z,13.26
2023-01-17T14:40:34.454Z,13.33
2023-01-17T14:43:12.507Z,13.34
2023-01-17T14:45:41.282Z,13.38
2023-01-17T14:48:17.993Z,13.40
2023-01-17T14:50:46.899Z,13.35
2023-01-17T14:53:13.798Z,13.28
2023-01-17T14:55:56.546Z,13.30
2023-01-17T14:58:34.704Z,13.29
2023-01-17T15:01:03.183Z,13.31
2023-01-17T15:03:34.083Z,13.34
2023-01-17T15:06:11.494Z,13.19
2023-01-17T15:08:38.607Z,13.15
2023-01-17T15:11:10.602Z,13.14
2023-01-17T15:13:44.624Z,13.21
2023-01-17T15:16:26.091Z,13.14
2023-01-17T15:18:54.887Z,13.04
2023-01-17T15:21:25.547Z,13.17
2023-01-17T15:24:11.108Z,13.10
2023-01-17T15:26:43.275Z,13.21
2023-01-17T15:29:38.765Z,13.15
2023-01-17T15:32:07.518Z,13.00
2023-01-17T15:34:54.417Z,12.99
2023-01-17T15:40:24.101Z,12.84
2023-01-17T15:42:55.005Z,12.85
2023-01-17T15:45:28.869Z,12.54
2023-01-17T15:48:01.939Z,12.84
2023-01-17T15:50:32.916Z,12.81
2023-01-17T15:53:06.730Z,12.69
2023-01-17T15:55:39.444Z,12.70
2023-01-17T16:01:18.089Z,12.60
2023-01-17T16:03:59.081Z,12.61
2023-01-17T16:06:45.753Z,12.55
2023-01-17T16:09:23.632Z,12.62
2023-01-17T16:11:56.072Z,12.52
2023-01-17T16:14:23.269Z,12.59
2023-01-17T16:16:53.776Z,12.52
2023-01-17T16:19:21.865Z,12.42
2023-01-17T16:21:51.111Z,12.48
2023-01-17T16:24:18.702Z,12.49
2023-01-17T16:26:47.415Z,12.57
2023-01-17T16:29:14.691Z,12.48
2023-01-17T16:31:42.116Z,12.52
2023-01-17T16:34:12.533Z,12.46
2023-01-17T16:36:39.613Z,12.49
2023-01-17T16:39:10.162Z,12.47
2023-01-17T16:41:44.447Z,12.43
2023-01-17T16:44:12.484Z,12.44
2023-01-17T16:46:40.625Z,12.38
2023-01-17T16:49:08.578Z,12.37
2023-01-17T16:51:35.549Z,12.30
2023-01-17T16:54:02.605Z,12.27
2023-01-17T16:56:38.682Z,12.24
2023-01-17T16:59:05.694Z,12.20
2023-01-17T17:01:32.689Z,12.19
2023-01-17T17:03:59.768Z,12.14
2023-01-17T17:06:26.767Z,12.14
2023-01-17T17:08:53.738Z,12.04
2023-01-17T17:11:24.075Z,12.03
2023-01-17T17:13:52.004Z,11.99
2023-01-17T17:16:34.018Z,11.97
2023-01-17T17:19:03.726Z,11.92
2023-01-17T17:21:32.016Z,11.87
2023-01-17T17:24:00.928Z,11.91
2023-01-17T17:26:31.647Z,11.88
2023-01-17T17:28:58.670Z,11.80
2023-01-17T17:31:26.720Z,11.73
2023-01-17T17:33:57.509Z,11.68
2023-01-17T17:36:24.541Z,11.67
2023-01-17T17:38:54.659Z,11.68
2023-01-17T17:41:27.230Z,11.64
2023-01-17T17:43:54.991Z,11.63
2023-01-17T17:46:24.148Z,11.60
2023-01-17T17:48:51.055Z,11.44
2023-01-17T17:51:26.875Z,11.42
2023-01-17T17:53:56.749Z,11.32
2023-01-17T17:56:24.351Z,11.34
2023-01-17T17:58:51.820Z,11.33
2023-01-17T18:01:19.767Z,11.20
2023-01-17T18:03:46.678Z,11.10
2023-01-17T18:06:14.113Z,11.03
2023-01-17T18:08:41.315Z,11.02
2023-01-17T18:11:15.091Z,11.08
2023-01-17T18:13:43.179Z,11.01
2023-01-17T18:16:10.230Z,11.07
2023-01-17T18:18:39.892Z,11.06
2023-01-17T18:21:06.899Z,11.06
2023-01-17T18:23:33.797Z,11.04
2023-01-17T18:26:00.811Z,11.04
2023-01-17T18:28:27.939Z,11.03
2023-01-17T18:30:54.881Z,11.04
2023-01-17T18:33:21.904Z,11.12
2023-01-17T18:35:56.819Z,11.17
2023-01-17T18:38:28.874Z,11.21
2023-01-17T18:40:55.749Z,11.27
2023-01-17T18:43:26.066Z,11.35
2023-01-17T18:45:53.531Z,11.29
2023-01-17T18:48:20.474Z,11.51
2023-01-17T18:50:55.676Z,11.52
2023-01-17T18:53:22.652Z,11.65
2023-01-17T18:55:56.965Z,11.64
2023-01-17T18:58:25.276Z,11.65
2023-01-17T19:00:53.418Z,11.71
2023-01-17T19:03:25.524Z,11.80
2023-01-17T19:05:52.393Z,11.78
2023-01-17T19:08:19.786Z,11.89
2023-01-17T19:10:48.415Z,11.82
2023-01-17T19:13:15.382Z,11.88
2023-01-17T19:15:42.211Z,11.91
2023-01-17T19:18:09.115Z,11.79
2023-01-17T19:20:36.149Z,11.89
2023-01-17T19:23:03.245Z,12.01
2023-01-17T19:25:30.504Z,12.27
2023-01-17T19:27:58.349Z,12.40
2023-01-17T19:30:25.372Z,12.41
2023-01-17T19:32:52.979Z,12.58
2023-01-17T19:35:22.530Z,12.53
2023-01-17T19:37:55.043Z,12.61
2023-01-17T19:40:40.072Z,12.62
2023-01-17T19:43:08.294Z,12.61
2023-01-17T19:45:35.306Z,12.67
2023-01-17T19:48:02.265Z,12.69
2023-01-17T19:50:33.368Z,12.80
2023-01-17T19:53:03.389Z,12.81
2023-01-17T19:55:30.312Z,12.89
2023-01-17T19:57:57.810Z,12.72
2023-01-17T20:00:30.099Z,12.86
2023-01-17T20:02:57.374Z,12.83
2023-01-17T20:05:24.514Z,12.92
2023-01-17T20:07:51.376Z,12.86
2023-01-17T20:10:19.116Z,12.84
2023-01-17T20:12:47.128Z,12.96
2023-01-17T20:15:14.130Z,12.96
2023-01-17T20:17:41.044Z,12.93
2023-01-17T20:20:12.853Z,13.04
2023-01-17T20:22:46.126Z,13.11
2023-01-17T20:25:13.176Z,12.97
2023-01-17T20:27:44.532Z,12.91
2023-01-17T20:30:20.280Z,12.97
2023-01-17T20:32:47.916Z,12.90
2023-01-17T20:35:16.280Z,13.05
2023-01-17T20:37:43.414Z,13.14
2023-01-17T20:40:12.286Z,13.29
2023-01-17T20:42:39.521Z,13.23
2023-01-17T20:45:07.656Z,13.20
2023-01-17T20:47:34.763Z,13.19
2023-01-17T20:50:04.026Z,13.14
2023-01-17T20:52:31.040Z,13.08
2023-01-17T20:54:57.991Z,12.98
2023-01-17T20:57:25.043Z,12.93
2023-01-17T20:59:52.438Z,12.94
2023-01-17T21:02:19.495Z,12.90
2023-01-17T21:04:46.470Z,13.01
2023-01-17T21:07:13.480Z,13.11
2023-01-17T21:09:42.828Z,13.12
2023-01-17T21:12:09.801Z,12.97
2023-01-17T21:14:37.729Z,13.05
2023-01-17T21:17:07.466Z,13.00
2023-01-17T21:19:34.330Z,13.05
2023-01-17T21:22:01.557Z,13.08
2023-01-17T21:24:29.408Z,13.13
2023-01-17T21:26:57.008Z,13.13
2023-01-17T21:29:28.811Z,13.01
2023-01-17T21:31:56.339Z,13.03
2023-01-17T21:34:25.432Z,13.03
2023-01-17T21:36:52.570Z,12.94
2023-01-17T21:39:19.945Z,12.87
2023-01-17T21:41:49.705Z,12.78
2023-01-17T21:44:19.855Z,12.67
2023-01-17T21:46:47.711Z,12.60
2023-01-17T21:49:14.973Z,12.54
2023-01-17T21:51:55.298Z,12.50
2023-01-17T21:54:50.189Z,12.43
2023-01-17T21:57:38.581Z,12.34
2023-01-17T22:00:08.531Z,12.17
2023-01-17T22:02:38.625Z,12.20
2023-01-17T22:05:06.059Z,12.10
2023-01-17T22:07:33.567Z,12.06
2023-01-17T22:10:00.555Z,12.03
2023-01-17T22:12:27.461Z,12.03
2023-01-17T22:14:55.079Z,12.07
2023-01-17T22:17:22.270Z,12.09
2023-01-17T22:19:49.128Z,12.12
2023-01-17T22:22:16.134Z,12.26
2023-01-17T22:24:42.956Z,12.35
2023-01-17T22:27:09.975Z,12.35
2023-01-17T22:29:38.057Z,12.36
2023-01-17T22:32:05.710Z,12.37
2023-01-17T22:34:33.075Z,12.37
2023-01-17T22:37:00.586Z,12.43
2023-01-17T22:39:34.821Z,12.45
2023-01-17T22:42:01.693Z,12.36
2023-01-17T22:44:28.615Z,12.36
2023-01-17T22:46:55.539Z,12.32
2023-01-17T22:49:23.601Z,12.34
2023-01-17T22:51:51.041Z,12.44
2023-01-17T22:54:20.856Z,12.43
2023-01-17T22:56:48.859Z,12.56
2023-01-17T22:59:16.560Z,12.58
2023-01-17T23:01:43.496Z,12.66
2023-01-17T23:04:14.271Z,12.70
2023-01-17T23:06:42.651Z,12.86
2023-01-17T23:09:12.486Z,12.84
2023-01-17T23:11:41.227Z,13.18
2023-01-17T23:14:24.692Z,13.18
2023-01-17T23:17:21.647Z,13.21
2023-01-17T23:19:54.685Z,13.24
2023-01-17T23:22:27.041Z,13.20
2023-01-17T23:24:55.366Z,13.20
2023-01-17T23:27:49.955Z,13.25
2023-01-17T23:30:20.040Z,13.11
2023-01-17T23:32:52.164Z,13.11
2023-01-17T23:35:21.675Z,13.10
2023-01-17T23:38:07.681Z,13.06
2023-01-17T23:40:36.806Z,13.15
2023-01-17T23:43:23.241Z,13.06
2023-01-17T23:45:52.080Z,13.11
2023-01-17T23:48:19.686Z,13.12
2023-01-17T23:50:48.332Z,13.21
2023-01-17T23:53:23.070Z,13.13
2023-01-17T23:55:52.069Z,13.07
2023-01-17T23:58:20.890Z,13.12
